Time;durP1;ratioP1;P1;durP2;ratioP2;P2;SDS_P1;SDS_P2;PMS_P1;PMS_P2;Temp;Humidity;BMP_temperature;BMP_pressure;BME280_temperature;BME280_humidity;BME280_pressure;Samples;Min_cycle;Max_cycle;Signal;HPM_P1;HPM_P2
2023/04/20 00:00:23;;;;;;;4.90;4.37;;;8.50;1.00;;;;;;5046039;28;20693;-54
2023/04/20 00:02:49;;;;;;;6.17;4.20;;;8.50;1.00;;;;;;5050199;28;20934;-53
2023/04/20 00:05:15;;;;;;;4.80;4.40;;;8.40;1.00;;;;;;5050686;28;20447;-52
2023/04/20 00:07:40;;;;;;;5.00;4.60;;;8.50;1.00;;;;;;5045536;28;20196;-53
2023/04/20 00:10:07;;;;;;;5.20;4.57;;;8.50;1.00;;;;;;5044196;28;20253;-55
2023/04/20 00:12:34;;;;;;;5.07;4.57;;;8.50;1.00;;;;;;5047309;28;20211;-54
2023/04/20 00:15:00;;;;;;;5.73;5.23;;;8.50;1.00;;;;;;5040497;28;20421;-55
2023/04/20 00:17:25;;;;;;;4.70;4.10;;;8.50;1.00;;;;;;5046395;28;20482;-55
2023/04/20 00:19:51;;;;;;;5.63;4.27;;;8.40;1.00;;;;;;5043591;28;20197;-54
2023/04/20 00:22:16;;;;;;;5.30;4.77;;;8.40;1.00;;;;;;5042124;28;20203;-52
2023/04/20 00:24:42;;;;;;;4.73;4.23;;;8.40;1.00;;;;;;5046891;28;20707;-54
2023/04/20 00:27:08;;;;;;;4.60;4.20;;;8.50;1.00;;;;;;5049167;28;20196;-53
2023/04/20 00:29:33;;;;;;;4.97;4.47;;;8.50;1.00;;;;;;5047045;28;20221;-53
2023/04/20 00:31:59;;;;;;;5.63;5.10;;;8.50;1.00;;;;;;5047411;28;20603;-55
2023/04/20 00:34:24;;;;;;;5.90;5.40;;;8.50;1.00;;;;;;5046888;28;20319;-55
2023/04/20 00:36:50;;;;;;;4.97;4.50;;;8.60;1.00;;;;;;5050763;28;20199;-56
2023/04/20 00:39:16;;;;;;;6.50;5.87;;;8.50;1.00;;;;;;5049749;28;20423;-54
2023/04/20 00:41:41;;;;;;;7.40;5.67;;;8.50;1.00;;;;;;5050816;28;20431;-54
2023/04/20 00:44:10;;;;;;;5.60;5.10;;;8.40;1.00;;;;;;5051719;28;20654;-54
2023/04/20 00:46:36;;;;;;;6.50;5.90;;;8.50;1.00;;;;;;5048282;28;20196;-54
2023/04/20 00:49:01;;;;;;;5.60;5.10;;;8.40;1.00;;;;;;5046953;28;20455;-52
2023/04/20 00:51:28;;;;;;;5.43;4.80;;;8.40;1.00;;;;;;5046204;28;20778;-54
2023/04/20 00:53:54;;;;;;;5.73;5.23;;;8.20;1.00;;;;;;5046633;28;20231;-55
2023/04/20 00:56:20;;;;;;;6.73;6.03;;;8.20;1.00;;;;;;5048915;28;20528;-52
2023/04/20 00:58:45;;;;;;;6.87;6.23;;;8.20;1.00;;;;;;5052715;28;20266;-52
2023/04/20 01:01:12;;;;;;;7.30;6.70;;;8.20;1.00;;;;;;5046646;28;20470;-54
2023/04/20 01:03:40;;;;;;;5.40;5.00;;;8.20;1.00;;;;;;5043374;28;20606;-53
2023/04/20 01:06:07;;;;;;;6.40;5.73;;;8.20;1.00;;;;;;5045684;28;20459;-53
2023/04/20 01:08:33;;;;;;;6.07;5.50;;;8.20;1.00;;;;;;5042153;28;20451;-55
2023/04/20 01:10:58;;;;;;;6.77;6.13;;;8.20;1.00;;;;;;5042635;28;20472;-54
2023/04/20 01:13:24;;;;;;;6.43;5.83;;;8.30;1.00;;;;;;5045649;28;20215;-56
2023/04/20 01:15:50;;;;;;;7.13;6.43;;;8.30;1.00;;;;;;5042464;28;20193;-53
2023/04/20 01:18:18;;;;;;;7.57;6.87;;;8.30;1.00;;;;;;5047129;28;20597;-52
2023/04/20 01:20:45;;;;;;;7.00;6.30;;;8.20;1.00;;;;;;5044910;28;20206;-54
2023/04/20 01:23:11;;;;;;;7.73;7.00;;;8.10;1.00;;;;;;5045753;28;20470;-52
2023/04/20 01:25:37;;;;;;;7.83;7.13;;;8.00;1.00;;;;;;5044340;28;20881;-54
2023/04/20 01:28:03;;;;;;;6.60;6.00;;;8.00;1.00;;;;;;5046905;28;20493;-53
2023/04/20 01:30:30;;;;;;;6.67;6.07;;;7.90;1.00;;;;;;5043830;28;20181;-53
2023/04/20 01:32:55;;;;;;;5.87;5.37;;;7.80;1.00;;;;;;5047355;28;20494;-52
2023/04/20 01:35:21;;;;;;;6.20;5.60;;;7.60;1.00;;;;;;5040457;28;20474;-53
2023/04/20 01:37:47;;;;;;;6.43;5.83;;;7.50;1.00;;;;;;5044737;28;20181;-55
2023/04/20 01:40:13;;;;;;;6.10;5.50;;;7.40;1.00;;;;;;5040629;28;20185;-54
2023/04/20 01:42:39;;;;;;;6.33;5.80;;;7.30;1.00;;;;;;5040668;28;20665;-57
2023/04/20 01:45:05;;;;;;;6.33;5.73;;;7.20;1.00;;;;;;5046294;28;20443;-53
2023/04/20 01:47:31;;;;;;;6.67;6.07;;;7.10;1.00;;;;;;5047525;28;20529;-53
2023/04/20 01:49:57;;;;;;;6.50;5.90;;;7.00;1.00;;;;;;5048301;28;20546;-52
2023/04/20 01:52:22;;;;;;;6.77;6.17;;;6.90;1.00;;;;;;5046147;28;20636;-53
2023/04/20 01:54:48;;;;;;;6.53;5.37;;;6.90;1.00;;;;;;5039521;28;20270;-53
2023/04/20 01:57:14;;;;;;;6.87;6.17;;;6.80;1.00;;;;;;5043613;28;20598;-54
2023/04/20 01:59:39;;;;;;;6.40;5.80;;;6.70;1.00;;;;;;5048969;28;20176;-54
2023/04/20 02:02:05;;;;;;;6.10;5.50;;;6.70;1.00;;;;;;5038939;28;20215;-55
2023/04/20 02:04:31;;;;;;;5.97;5.47;;;6.60;1.00;;;;;;5044050;28;20184;-54
2023/04/20 02:06:56;;;;;;;7.30;6.27;;;6.60;1.00;;;;;;5041676;28;20203;-55
2023/04/20 02:09:22;;;;;;;8.23;6.17;;;6.60;1.00;;;;;;5042253;28;20188;-52
2023/04/20 02:11:47;;;;;;;6.90;6.27;;;6.70;1.00;;;;;;5042357;28;20188;-53
2023/04/20 02:14:13;;;;;;;7.27;6.57;;;6.50;1.00;;;;;;5046625;28;20262;-54
2023/04/20 02:16:40;;;;;;;7.03;6.20;;;6.50;1.00;;;;;;5046483;28;20184;-54
2023/04/20 02:19:05;;;;;;;6.43;5.83;;;6.40;1.00;;;;;;5048007;28;20216;-55
2023/04/20 02:21:31;;;;;;;8.20;5.80;;;6.40;1.00;;;;;;5046196;28;20466;-53
2023/04/20 02:23:57;;;;;;;6.90;6.20;;;6.30;1.00;;;;;;5044445;28;20701;-51
2023/04/20 02:26:22;;;;;;;6.77;6.10;;;6.20;1.00;;;;;;5041720;28;20188;-53
2023/04/20 02:28:48;;;;;;;7.10;6.40;;;6.10;1.00;;;;;;5041985;28;20192;-54
2023/04/20 02:31:13;;;;;;;6.70;6.07;;;6.00;1.00;;;;;;5046074;28;20263;-54
2023/04/20 02:33:39;;;;;;;7.63;6.90;;;6.00;1.00;;;;;;5047399;28;20208;-54
2023/04/20 02:36:05;;;;;;;7.00;6.33;;;6.00;1.00;;;;;;5041556;28;20950;-53
2023/04/20 02:38:31;;;;;;;7.03;6.33;;;6.00;1.00;;;;;;5049099;28;20451;-56
2023/04/20 02:40:57;;;;;;;7.03;6.33;;;6.00;1.00;;;;;;5048068;28;20507;-56
2023/04/20 02:43:22;;;;;;;7.50;6.80;;;6.00;1.00;;;;;;5044628;28;20263;-54
2023/04/20 02:45:48;;;;;;;7.17;6.47;;;5.90;1.00;;;;;;5038295;28;20192;-52
2023/04/20 02:48:13;;;;;;;6.93;6.23;;;5.80;1.00;;;;;;5054130;28;20201;-55
2023/04/20 02:50:41;;;;;;;7.30;6.60;;;5.80;1.00;;;;;;5044669;28;20273;-52
2023/04/20 02:53:06;;;;;;;8.50;7.00;;;5.80;1.00;;;;;;5044402;28;20205;-54
2023/04/20 02:55:32;;;;;;;8.00;7.17;;;5.80;1.00;;;;;;5047604;28;20449;-55
2023/04/20 02:57:57;;;;;;;7.17;6.23;;;5.80;1.00;;;;;;5049130;28;20658;-56
2023/04/20 03:00:23;;;;;;;7.40;6.70;;;5.80;1.00;;;;;;5046328;28;20207;-55
2023/04/20 03:02:50;;;;;;;8.17;6.93;;;5.70;1.00;;;;;;5043870;28;20206;-53
2023/04/20 03:05:16;;;;;;;8.33;7.60;;;5.70;1.00;;;;;;5044061;28;20188;-55
2023/04/20 03:07:42;;;;;;;8.47;7.37;;;5.60;1.00;;;;;;5050170;28;20442;-55
2023/04/20 03:10:08;;;;;;;9.23;8.23;;;5.60;1.00;;;;;;5049455;28;20446;-53
2023/04/20 03:12:34;;;;;;;10.33;9.00;;;5.50;1.00;;;;;;5050458;28;20626;-54
2023/04/20 03:15:00;;;;;;;8.70;7.80;;;5.60;1.00;;;;;;5050934;28;20500;-53
2023/04/20 03:17:27;;;;;;;10.33;8.50;;;5.60;1.00;;;;;;5048219;28;20479;-54
2023/04/20 03:19:52;;;;;;;9.60;8.60;;;5.60;1.00;;;;;;5048141;28;20459;-54
2023/04/20 03:22:18;;;;;;;10.37;9.30;;;5.50;1.00;;;;;;5049542;28;20453;-52
2023/04/20 03:24:44;;;;;;;9.60;8.60;;;5.50;1.00;;;;;;5042449;28;20685;-53
2023/04/20 03:27:10;;;;;;;10.57;9.50;;;5.60;1.00;;;;;;5048874;28;20196;-52
2023/04/20 03:29:35;;;;;;;9.33;8.33;;;5.60;1.00;;;;;;5045745;28;20451;-53
2023/04/20 03:32:01;;;;;;;11.50;10.30;;;5.50;1.00;;;;;;5045969;28;20200;-54
2023/04/20 03:34:26;;;;;;;11.43;9.83;;;5.60;1.00;;;;;;5048531;28;20184;-53
2023/04/20 03:36:52;;;;;;;11.77;9.80;;;5.60;1.00;;;;;;5045831;28;21108;-54
2023/04/20 03:39:17;;;;;;;11.03;9.90;;;5.50;1.00;;;;;;5052973;28;20193;-56
2023/04/20 03:41:43;;;;;;;14.40;10.63;;;5.50;1.00;;;;;;5052668;28;20193;-57
2023/04/20 03:44:09;;;;;;;13.50;10.60;;;5.40;1.00;;;;;;5051336;28;20193;-52
2023/04/20 03:46:35;;;;;;;12.50;10.83;;;5.40;1.00;;;;;;5050048;28;20224;-55
2023/04/20 03:49:01;;;;;;;14.03;10.00;;;5.40;1.00;;;;;;5050153;28;20189;-52
2023/04/20 03:51:26;;;;;;;14.33;11.17;;;5.40;1.00;;;;;;5046372;28;20549;-55
2023/04/20 03:53:52;;;;;;;13.80;10.90;;;5.50;1.00;;;;;;5050053;28;20235;-55
2023/04/20 03:56:17;;;;;;;12.73;10.00;;;5.50;1.00;;;;;;5043479;28;20648;-52
2023/04/20 03:58:43;;;;;;;12.03;10.53;;;5.50;1.00;;;;;;5047677;28;20185;-52
2023/04/20 04:01:09;;;;;;;14.30;10.40;;;5.50;1.00;;;;;;5053641;28;20292;-52
2023/04/20 04:03:36;;;;;;;11.53;9.83;;;5.50;1.00;;;;;;5049466;28;20216;-54
2023/04/20 04:06:02;;;;;;;11.90;9.60;;;5.50;1.00;;;;;;5048474;28;20455;-53
2023/04/20 04:08:28;;;;;;;13.03;10.07;;;5.50;1.00;;;;;;5048250;28;20458;-56
2023/04/20 04:10:54;;;;;;;15.40;10.93;;;5.50;1.00;;;;;;5045036;28;20473;-55
2023/04/20 04:13:20;;;;;;;12.60;10.97;;;5.50;1.00;;;;;;5050654;28;20879;-55
2023/04/20 04:15:46;;;;;;;13.70;10.93;;;5.60;1.00;;;;;;5044388;28;20498;-53
2023/04/20 04:18:11;;;;;;;13.60;10.70;;;5.80;1.00;;;;;;5043930;28;20188;-53
2023/04/20 04:20:37;;;;;;;12.20;10.53;;;5.80;1.00;;;;;;5048128;28;20315;-54
2023/04/20 04:23:02;;;;;;;13.03;10.53;;;6.00;1.00;;;;;;5047603;28;20674;-56
2023/04/20 04:25:28;;;;;;;12.00;10.50;;;6.00;1.00;;;;;;5039985;28;20196;-52
2023/04/20 04:27:54;;;;;;;12.03;10.23;;;6.10;1.00;;;;;;5045123;28;20694;-54
2023/04/20 04:30:20;;;;;;;13.80;10.67;;;6.00;1.00;;;;;;5043224;28;20447;-51
2023/04/20 04:32:45;;;;;;;14.20;11.53;;;6.10;1.00;;;;;;5051606;28;20223;-55
2023/04/20 04:35:12;;;;;;;15.60;12.37;;;6.10;1.00;;;;;;5046612;28;20185;-53
2023/04/20 04:37:38;;;;;;;12.87;10.57;;;6.20;1.00;;;;;;5047296;28;20429;-52
2023/04/20 04:40:06;;;;;;;14.60;11.43;;;6.10;1.00;;;;;;5044166;28;20429;-57
2023/04/20 04:42:33;;;;;;;15.03;11.47;;;6.30;1.00;;;;;;5045039;28;20223;-52
2023/04/20 04:45:01;;;;;;;13.67;11.87;;;6.30;1.00;;;;;;5051007;28;20522;-53
2023/04/20 04:47:28;;;;;;;13.90;11.00;;;6.40;1.00;;;;;;5047732;28;20594;-53
2023/04/20 04:49:54;;;;;;;15.90;12.13;;;6.30;1.00;;;;;;5048620;28;21047;-54
2023/04/20 04:52:20;;;;;;;15.60;11.43;;;6.30;1.00;;;;;;5048813;28;20530;-54
2023/04/20 04:54:46;;;;;;;15.80;11.93;;;6.30;1.00;;;;;;5047714;28;20866;-55
2023/04/20 04:57:12;;;;;;;13.37;12.00;;;6.40;1.00;;;;;;5047537;28;20452;-52
2023/04/20 04:59:37;;;;;;;17.43;13.17;;;6.40;1.00;;;;;;5047102;28;20184;-53
2023/04/20 05:02:03;;;;;;;14.70;10.30;;;6.40;1.00;;;;;;5047194;28;20207;-57
2023/04/20 05:04:28;;;;;;;13.03;10.60;;;6.50;1.00;;;;;;5049752;28;20227;-55
2023/04/20 05:06:54;;;;;;;15.07;10.50;;;6.50;1.00;;;;;;5047522;28;20176;-55
2023/04/20 05:09:19;;;;;;;10.63;9.37;;;6.50;1.00;;;;;;5048163;28;20185;-51
2023/04/20 05:11:45;;;;;;;13.73;10.53;;;6.50;1.00;;;;;;5043856;28;20318;-54
2023/04/20 05:14:11;;;;;;;13.60;10.40;;;6.30;1.00;;;;;;5047787;28;20212;-55
2023/04/20 05:16:36;;;;;;;12.90;10.23;;;6.30;1.00;;;;;;5046396;28;20180;-52
2023/04/20 05:19:02;;;;;;;13.73;9.63;;;6.20;1.00;;;;;;5046611;28;20191;-54
2023/04/20 05:21:28;;;;;;;14.20;10.40;;;6.20;1.00;;;;;;5051590;28;20656;-55
2023/04/20 05:23:54;;;;;;;13.03;10.00;;;6.30;1.00;;;;;;5056938;28;20443;-54
2023/04/20 05:26:19;;;;;;;12.20;9.70;;;6.30;1.00;;;;;;5039124;28;20212;-53
2023/04/20 05:28:45;;;;;;;10.60;8.83;;;6.30;1.00;;;;;;5047892;28;20274;-57
2023/04/20 05:31:11;;;;;;;13.93;10.90;;;6.40;1.00;;;;;;5044271;28;20188;-54
2023/04/20 05:33:36;;;;;;;12.00;9.10;;;6.50;1.00;;;;;;5047771;28;20212;-57
2023/04/20 05:36:02;;;;;;;11.63;9.50;;;6.50;1.00;;;;;;5044375;28;20187;-54
2023/04/20 05:38:28;;;;;;;13.10;9.40;;;6.60;1.00;;;;;;5046648;28;20638;-53
2023/04/20 05:40:54;;;;;;;11.87;9.80;;;6.60;1.00;;;;;;5037976;28;20526;-53
2023/04/20 05:43:20;;;;;;;11.43;9.30;;;6.60;1.00;;;;;;5048480;28;20238;-54
2023/04/20 05:45:47;;;;;;;12.27;9.77;;;6.50;1.00;;;;;;5048231;28;21030;-54
2023/04/20 05:48:13;;;;;;;10.87;8.13;;;6.50;1.00;;;;;;5040638;28;20333;-53
2023/04/20 05:50:39;;;;;;;11.67;9.17;;;6.50;1.00;;;;;;5045002;28;20538;-53
2023/04/20 05:53:04;;;;;;;11.57;9.70;;;6.60;1.00;;;;;;5051142;28;20215;-54
2023/04/20 05:55:30;;;;;;;11.63;9.33;;;6.60;1.00;;;;;;5054693;28;20346;-56
2023/04/20 05:57:56;;;;;;;11.30;10.10;;;6.70;1.00;;;;;;5049656;28;20231;-56
2023/04/20 06:00:22;;;;;;;10.90;8.87;;;6.80;1.00;;;;;;5041726;28;20689;-52
2023/04/20 06:02:47;;;;;;;12.90;10.30;;;6.90;1.00;;;;;;5044930;28;20191;-56
2023/04/20 06:05:13;;;;;;;12.13;9.60;;;7.10;1.00;;;;;;5042760;28;20446;-55
2023/04/20 06:07:39;;;;;;;13.10;9.80;;;7.20;1.00;;;;;;5050698;28;20192;-54
2023/04/20 06:10:05;;;;;;;10.47;8.27;;;7.30;1.00;;;;;;5044417;28;20195;-53
2023/04/20 06:12:31;;;;;;;8.80;7.90;;;7.30;1.00;;;;;;5034490;28;20208;-55
2023/04/20 06:14:58;;;;;;;12.80;10.07;;;7.50;1.00;;;;;;5035862;28;20778;-54
2023/04/20 06:17:23;;;;;;;13.07;10.43;;;7.70;1.00;;;;;;5036635;28;20766;-53
2023/04/20 06:19:49;;;;;;;10.67;9.00;;;7.70;1.00;;;;;;5033093;28;20446;-54
2023/04/20 06:22:15;;;;;;;10.73;8.97;;;7.70;1.00;;;;;;5035926;28;20223;-55
2023/04/20 06:24:41;;;;;;;12.90;9.23;;;7.70;1.00;;;;;;5035581;28;20276;-55
2023/04/20 06:27:11;;;;;;;11.73;9.03;;;7.50;1.00;;;;;;5032802;28;20450;-53
2023/04/20 06:29:37;;;;;;;10.37;9.27;;;7.50;1.00;;;;;;5034488;28;20453;-54
2023/04/20 06:32:03;;;;;;;11.97;9.53;;;7.50;1.00;;;;;;5035912;28;20947;-55
2023/04/20 06:34:29;;;;;;;12.00;10.07;;;7.50;1.00;;;;;;5034454;28;20479;-54
2023/04/20 06:36:54;;;;;;;10.83;9.57;;;7.70;1.00;;;;;;5032804;28;20447;-54
2023/04/20 06:39:20;;;;;;;16.03;10.20;;;7.80;1.00;;;;;;5037033;28;21771;-54
2023/04/20 06:41:46;;;;;;;10.97;9.60;;;7.90;1.00;;;;;;5051587;28;20650;-56
2023/04/20 06:44:11;;;;;;;14.20;10.70;;;7.90;1.00;;;;;;5048679;28;20189;-55
2023/04/20 06:46:37;;;;;;;12.33;9.43;;;7.90;1.00;;;;;;5048914;28;20188;-53
2023/04/20 06:49:02;;;;;;;12.50;10.93;;;7.80;1.00;;;;;;5044168;28;20238;-53
2023/04/20 06:51:30;;;;;;;13.20;10.40;;;7.90;1.00;;;;;;5044825;28;20216;-54
2023/04/20 06:53:56;;;;;;;11.97;10.17;;;7.70;1.00;;;;;;5048875;28;20346;-54
2023/04/20 06:56:21;;;;;;;12.90;10.50;;;7.80;1.00;;;;;;5050142;28;20569;-53
2023/04/20 06:58:47;;;;;;;10.73;9.60;;;7.90;1.00;;;;;;5047942;28;20184;-54
2023/04/20 07:01:13;;;;;;;10.23;9.07;;;7.80;1.00;;;;;;5053181;28;20187;-56
2023/04/20 07:03:38;;;;;;;10.20;9.13;;;7.90;1.00;;;;;;5048083;28;20180;-56
2023/04/20 07:06:06;;;;;;;10.97;9.20;;;7.80;1.00;;;;;;5046883;28;20188;-54
2023/04/20 07:08:35;;;;;;;11.47;10.20;;;7.70;1.00;;;;;;5044954;28;20196;-53
2023/04/20 07:11:00;;;;;;;12.37;10.30;;;7.70;1.00;;;;;;5045921;28;20594;-55
2023/04/20 07:13:27;;;;;;;11.27;9.93;;;7.70;1.00;;;;;;5046859;28;20987;-51
2023/04/20 07:15:52;;;;;;;11.80;9.70;;;7.70;1.00;;;;;;5036918;28;20213;-55
2023/04/20 07:18:18;;;;;;;12.87;9.87;;;7.60;1.00;;;;;;5056035;28;20987;-53
2023/04/20 07:20:44;;;;;;;11.80;10.20;;;7.60;1.00;;;;;;5040089;28;20652;-53
2023/04/20 07:23:09;;;;;;;12.73;10.40;;;7.70;1.00;;;;;;5034272;28;20206;-55
2023/04/20 07:25:35;;;;;;;15.67;10.20;;;7.70;1.00;;;;;;5035926;28;20504;-54
2023/04/20 07:28:00;;;;;;;12.60;10.70;;;7.80;1.00;;;;;;5037658;28;20379;-53
2023/04/20 07:30:26;;;;;;;13.23;11.57;;;8.00;1.00;;;;;;5039115;28;20545;-54
2023/04/20 07:32:52;;;;;;;11.60;9.73;;;8.00;1.00;;;;;;5044358;28;20209;-54
2023/04/20 07:35:17;;;;;;;12.90;10.50;;;8.20;1.00;;;;;;5049176;28;20188;-55
2023/04/20 07:37:43;;;;;;;11.70;10.07;;;8.30;1.00;;;;;;5043957;28;20605;-55
2023/04/20 07:40:09;;;;;;;12.60;11.00;;;8.50;1.00;;;;;;5039143;28;20641;-55
2023/04/20 07:42:36;;;;;;;11.90;10.03;;;8.60;1.00;;;;;;5051330;28;20191;-54
2023/04/20 07:45:05;;;;;;;15.73;11.00;;;8.70;1.00;;;;;;5047688;28;20612;-54
2023/04/20 07:47:33;;;;;;;11.90;10.63;;;8.80;1.00;;;;;;5043937;28;20469;-55
2023/04/20 07:49:58;;;;;;;12.60;10.20;;;8.90;1.00;;;;;;5051790;28;20797;-55
2023/04/20 07:52:24;;;;;;;13.23;10.10;;;9.10;1.00;;;;;;5045992;28;20425;-54
2023/04/20 07:54:52;;;;;;;13.67;10.10;;;9.20;1.00;;;;;;5063057;28;20216;-55
2023/04/20 07:57:19;;;;;;;12.93;10.70;;;9.20;1.00;;;;;;5053232;28;20453;-55
2023/04/20 07:59:45;;;;;;;13.33;10.47;;;9.20;1.00;;;;;;5052176;28;20493;-54
2023/04/20 08:02:11;;;;;;;13.83;11.70;;;9.30;1.00;;;;;;5052165;28;20768;-55
2023/04/20 08:04:36;;;;;;;12.00;10.70;;;9.50;1.00;;;;;;5050576;28;20525;-54
2023/04/20 08:07:02;;;;;;;14.93;11.00;;;9.50;1.00;;;;;;5048703;28;20196;-56
2023/04/20 08:09:28;;;;;;;12.97;11.67;;;9.40;1.00;;;;;;5051853;28;20184;-55
2023/04/20 08:11:54;;;;;;;13.20;11.40;;;9.40;1.00;;;;;;5051953;28;20180;-56
2023/04/20 08:14:19;;;;;;;14.57;11.67;;;9.50;1.00;;;;;;5048016;28;20704;-54
2023/04/20 08:16:45;;;;;;;11.70;10.40;;;9.60;1.00;;;;;;5050735;28;20661;-53
2023/04/20 08:19:11;;;;;;;11.17;9.97;;;9.70;1.00;;;;;;5050017;28;20216;-55
2023/04/20 08:21:40;;;;;;;14.37;11.77;;;9.70;1.00;;;;;;5049306;28;20614;-55
2023/04/20 08:24:06;;;;;;;13.70;11.47;;;9.90;1.00;;;;;;5049576;28;20506;-55
2023/04/20 08:26:32;;;;;;;14.27;10.67;;;10.00;1.00;;;;;;5051062;28;20417;-53
2023/04/20 08:28:59;;;;;;;13.13;11.70;;;10.10;1.00;;;;;;5044611;28;20461;-55
2023/04/20 08:31:25;;;;;;;14.50;11.10;;;9.90;1.00;;;;;;5051512;28;20410;-54
2023/04/20 08:33:51;;;;;;;13.80;12.20;;;10.00;1.00;;;;;;5051208;28;20520;-55
2023/04/20 08:36:16;;;;;;;13.27;11.67;;;10.20;1.00;;;;;;5050226;28;20288;-54
2023/04/20 08:38:42;;;;;;;13.30;11.73;;;10.20;1.00;;;;;;5049415;28;20180;-54
2023/04/20 08:41:12;;;;;;;14.43;11.77;;;10.20;1.00;;;;;;5049968;28;20192;-54
2023/04/20 08:43:37;;;;;;;13.20;11.80;;;10.30;1.00;;;;;;5048079;28;20435;-54
2023/04/20 08:46:03;;;;;;;14.00;12.03;;;10.60;1.00;;;;;;5051388;28;20923;-54
2023/04/20 08:48:40;;;;;;;12.97;11.13;;;10.70;1.00;;;;;;5048984;28;20454;-55
2023/04/20 08:51:06;;;;;;;12.97;11.43;;;10.90;1.00;;;;;;5051076;28;20212;-55
2023/04/20 08:53:32;;;;;;;13.80;12.33;;;11.00;1.00;;;;;;5049583;28;20473;-54
2023/04/20 08:55:58;;;;;;;14.60;12.13;;;10.90;1.00;;;;;;5050474;28;20216;-54
2023/04/20 08:58:28;;;;;;;14.13;11.73;;;11.00;1.00;;;;;;5050915;28;20493;-55
2023/04/20 09:00:53;;;;;;;14.13;12.70;;;10.90;1.00;;;;;;5048958;28;20935;-56
2023/04/20 09:03:33;;;;;;;14.67;12.90;;;11.00;1.00;;;;;;5051452;28;20421;-54
2023/04/20 09:05:59;;;;;;;17.13;13.17;;;11.10;1.00;;;;;;5052315;28;20682;-55
2023/04/20 09:08:51;;;;;;;14.03;12.53;;;11.20;1.00;;;;;;5049471;28;20557;-55
2023/04/20 09:11:24;;;;;;;14.37;11.87;;;11.10;1.00;;;;;;5047955;28;20254;-55
2023/04/20 09:14:05;;;;;;;15.10;12.87;;;11.20;1.00;;;;;;5055509;28;20462;-54
2023/04/20 09:16:34;;;;;;;14.73;13.10;;;11.40;1.00;;;;;;5048114;28;20470;-55
2023/04/20 09:19:00;;;;;;;17.70;14.03;;;11.50;1.00;;;;;;5047678;28;20542;-53
2023/04/20 09:21:30;;;;;;;15.00;13.33;;;11.50;1.00;;;;;;5050660;28;20971;-55
2023/04/20 09:24:06;;;;;;;14.30;12.80;;;11.60;1.00;;;;;;5048245;28;20238;-54
2023/04/20 09:26:33;;;;;;;16.67;12.93;;;11.60;1.00;;;;;;5050110;28;20429;-55
2023/04/20 09:29:00;;;;;;;15.40;13.47;;;11.40;1.00;;;;;;5049884;28;20455;-55
2023/04/20 09:31:26;;;;;;;15.87;14.00;;;11.30;1.00;;;;;;5048418;28;20451;-54
2023/04/20 09:33:59;;;;;;;19.63;14.30;;;11.20;1.00;;;;;;5045990;28;20535;-55
2023/04/20 09:36:38;;;;;;;15.23;13.33;;;11.20;1.00;;;;;;5046691;28;20513;-55
2023/04/20 09:39:09;;;;;;;15.67;13.47;;;11.20;1.00;;;;;;5045151;28;20482;-55
2023/04/20 09:41:36;;;;;;;15.40;12.93;;;11.30;1.00;;;;;;5047925;28;20504;-55
2023/04/20 09:44:03;;;;;;;17.73;14.10;;;11.40;1.00;;;;;;5048460;28;20921;-53
2023/04/20 09:46:31;;;;;;;15.13;13.13;;;11.30;1.00;;;;;;5050101;28;20438;-57
2023/04/20 09:49:01;;;;;;;16.37;13.47;;;10.80;1.00;;;;;;5049874;28;20459;-55
2023/04/20 09:51:27;;;;;;;14.07;11.70;;;10.60;1.00;;;;;;5049892;28;20414;-55
2023/04/20 09:53:58;;;;;;;14.70;12.10;;;10.30;1.00;;;;;;5044951;28;20473;-54
2023/04/20 09:56:25;;;;;;;16.47;13.33;;;10.20;1.00;;;;;;5049536;28;20889;-55
2023/04/20 09:58:52;;;;;;;21.17;15.13;;;10.30;1.00;;;;;;5049402;28;20813;-54
2023/04/20 10:01:18;;;;;;;17.73;12.70;;;10.20;1.00;;;;;;5044968;28;20452;-55
2023/04/20 10:03:44;;;;;;;15.60;12.97;;;10.30;1.00;;;;;;5041827;28;20987;-55
2023/04/20 10:06:23;;;;;;;16.70;13.67;;;10.10;1.00;;;;;;5056547;28;20454;-55
2023/04/20 10:08:50;;;;;;;17.80;13.73;;;9.90;1.00;;;;;;5047589;28;20528;-56
2023/04/20 10:11:32;;;;;;;16.90;13.23;;;9.80;1.00;;;;;;5055137;28;20505;-55
2023/04/20 10:14:00;;;;;;;19.07;15.50;;;9.70;1.00;;;;;;5058755;28;20475;-57
2023/04/20 10:16:26;;;;;;;19.10;14.47;;;9.50;1.00;;;;;;5049253;28;20498;-54
2023/04/20 10:19:03;;;;;;;17.50;14.80;;;9.50;1.00;;;;;;5047624;28;20497;-55
2023/04/20 10:21:31;;;;;;;19.13;15.17;;;9.60;1.00;;;;;;5047624;28;20500;-54
2023/04/20 10:23:59;;;;;;;20.70;15.83;;;9.60;1.00;;;;;;5057698;28;20440;-55
2023/04/20 10:26:38;;;;;;;20.40;16.30;;;9.60;1.00;;;;;;5055146;28;20465;-54
2023/04/20 10:29:05;;;;;;;20.57;15.80;;;9.60;1.00;;;;;;5049455;28;20431;-55
2023/04/20 10:31:38;;;;;;;19.73;16.30;;;9.50;1.00;;;;;;5049143;28;20438;-54
2023/04/20 10:34:05;;;;;;;20.33;15.83;;;9.60;1.00;;;;;;5047375;28;20520;-56
2023/04/20 10:36:33;;;;;;;19.43;15.57;;;9.70;1.00;;;;;;5045776;28;21022;-53
2023/04/20 10:39:01;;;;;;;20.23;15.70;;;9.70;1.00;;;;;;5048597;28;20517;-56
2023/04/20 10:41:27;;;;;;;22.17;16.37;;;9.70;1.00;;;;;;5044280;28;20443;-55
2023/04/20 10:43:52;;;;;;;19.87;16.53;;;9.50;1.00;;;;;;5046673;28;20447;-54
2023/04/20 10:46:23;;;;;;;20.60;16.67;;;9.50;1.00;;;;;;5049061;28;20585;-53
2023/04/20 10:49:00;;;;;;;18.57;15.70;;;9.50;1.00;;;;;;5049806;28;20189;-53
2023/04/20 10:51:26;;;;;;;19.87;15.03;;;9.50;1.00;;;;;;5048912;28;20443;-54
2023/04/20 10:54:04;;;;;;;21.10;16.03;;;9.60;1.00;;;;;;5046276;28;20482;-55
2023/04/20 10:56:40;;;;;;;19.27;15.27;;;9.60;1.00;;;;;;5050777;28;20503;-54
2023/04/20 10:59:07;;;;;;;19.50;15.60;;;9.70;1.00;;;;;;5047580;28;20447;-55
2023/04/20 11:01:33;;;;;;;18.80;15.10;;;9.90;1.00;;;;;;5046547;28;20447;-54
2023/04/20 11:03:59;;;;;;;20.80;15.40;;;10.20;1.00;;;;;;5045959;28;20524;-55
2023/04/20 11:06:24;;;;;;;24.00;17.43;;;10.30;1.00;;;;;;5044784;28;20280;-53
2023/04/20 11:08:50;;;;;;;22.57;16.63;;;10.50;1.00;;;;;;5045080;28;20558;-55
2023/04/20 11:11:24;;;;;;;20.30;16.40;;;10.50;1.00;;;;;;5046760;28;20672;-53
2023/04/20 11:13:50;;;;;;;18.00;14.87;;;10.50;1.00;;;;;;5047148;28;20267;-54
2023/04/20 11:16:17;;;;;;;18.70;15.07;;;10.50;1.00;;;;;;5043904;28;20455;-55
2023/04/20 11:18:53;;;;;;;18.60;15.73;;;10.40;1.00;;;;;;5047727;28;20418;-55
2023/04/20 11:21:20;;;;;;;18.90;15.50;;;10.40;1.00;;;;;;5045501;28;20447;-54
2023/04/20 11:23:47;;;;;;;20.60;16.20;;;10.50;1.00;;;;;;5062620;28;20497;-54
2023/04/20 11:26:13;;;;;;;19.60;15.87;;;10.50;1.00;;;;;;5058355;28;20473;-55
2023/04/20 11:28:51;;;;;;;18.43;15.50;;;10.60;1.00;;;;;;5071419;28;20477;-54
2023/04/20 11:31:17;;;;;;;18.40;15.00;;;10.70;1.00;;;;;;5072707;28;20547;-54
2023/04/20 11:33:43;;;;;;;21.63;17.23;;;10.70;1.00;;;;;;5049308;28;20863;-54
2023/04/20 11:36:21;;;;;;;17.47;14.30;;;10.80;1.00;;;;;;5049901;28;20439;-54
2023/04/20 11:38:47;;;;;;;22.63;17.20;;;10.60;1.00;;;;;;5050079;28;20242;-54
2023/04/20 11:41:13;;;;;;;17.20;15.07;;;10.50;1.00;;;;;;5050083;28;20447;-55
2023/04/20 11:43:39;;;;;;;18.80;15.93;;;10.60;1.00;;;;;;5052300;28;20447;-54
2023/04/20 11:46:24;;;;;;;21.67;15.00;;;10.80;1.00;;;;;;5051295;28;20597;-55
2023/04/20 11:48:50;;;;;;;19.43;15.60;;;10.80;1.00;;;;;;5050896;28;20200;-54
2023/04/20 11:51:16;;;;;;;19.07;17.07;;;10.90;1.00;;;;;;5046739;28;21032;-54
2023/04/20 11:53:41;;;;;;;24.13;17.83;;;10.90;1.00;;;;;;5050511;28;20266;-55
2023/04/20 11:56:07;;;;;;;20.60;17.37;;;11.00;1.00;;;;;;5048488;28;20220;-54
2023/04/20 11:58:33;;;;;;;20.10;16.73;;;11.00;1.00;;;;;;5050718;28;20184;-54
2023/04/20 12:00:59;;;;;;;21.40;17.13;;;11.10;1.00;;;;;;5052109;28;20446;-53
2023/04/20 12:03:25;;;;;;;21.03;18.80;;;11.00;1.00;;;;;;5052057;28;20810;-54
2023/04/20 12:05:51;;;;;;;20.33;17.60;;;11.10;1.00;;;;;;5052341;28;20192;-54
2023/04/20 12:08:17;;;;;;;19.90;16.93;;;11.20;1.00;;;;;;5048913;28;20462;-56
2023/04/20 12:10:43;;;;;;;20.13;17.80;;;11.20;1.00;;;;;;5050674;28;20207;-54
2023/04/20 12:13:10;;;;;;;23.83;18.17;;;11.30;1.00;;;;;;5051453;28;20471;-54
2023/04/20 12:15:35;;;;;;;19.63;17.53;;;11.40;1.00;;;;;;5045413;28;20447;-55
2023/04/20 12:18:01;;;;;;;22.33;18.17;;;11.40;1.00;;;;;;5050714;28;20808;-55
2023/04/20 12:20:26;;;;;;;21.10;17.73;;;11.40;1.00;;;;;;5051788;28;20196;-55
2023/04/20 12:22:52;;;;;;;27.20;19.23;;;11.30;1.00;;;;;;5049621;28;20192;-54
2023/04/20 12:25:18;;;;;;;22.43;19.13;;;11.30;1.00;;;;;;5050862;28;20246;-54
2023/04/20 12:27:44;;;;;;;22.00;18.17;;;11.50;1.00;;;;;;5050579;28;20525;-56
2023/04/20 12:30:10;;;;;;;25.33;19.57;;;11.50;1.00;;;;;;5051178;28;20439;-54
2023/04/20 12:32:35;;;;;;;24.70;19.57;;;11.50;1.00;;;;;;5046738;28;20192;-55
2023/04/20 12:35:01;;;;;;;20.83;18.27;;;11.60;1.00;;;;;;5049179;28;20495;-54
2023/04/20 12:37:27;;;;;;;22.67;18.60;;;11.60;1.00;;;;;;5048816;28;20211;-54
2023/04/20 12:39:52;;;;;;;20.60;18.13;;;11.60;1.00;;;;;;5049783;28;20948;-55
2023/04/20 12:42:18;;;;;;;22.10;17.20;;;11.60;1.00;;;;;;5048411;28;20243;-54
2023/04/20 12:44:44;;;;;;;20.90;17.67;;;11.60;1.00;;;;;;5050162;28;20246;-55
2023/04/20 12:47:09;;;;;;;18.90;16.50;;;11.60;1.00;;;;;;5050073;28;20250;-54